Time;durP1;ratioP1;P1;durP2;ratioP2;P2;SDS_P1;SDS_P2;PMS_P1;PMS_P2;Temp;Humidity;BMP_temperature;BMP_pressure;BME280_temperature;BME280_humidity;BME280_pressure;Samples;Min_cycle;Max_cycle;Signal;HPM_P1;HPM_P2
2021/05/23 00:00:25;;;;;;;1.43;0.90;;;15.30;97.40;;;;;;5060929;28;20470;-53
2021/05/23 00:02:53;;;;;;;1.87;1.20;;;15.20;97.50;;;;;;5055677;28;20275;-56
2021/05/23 00:05:23;;;;;;;2.50;1.00;;;15.00;97.80;;;;;;5052212;28;20411;-52
2021/05/23 00:08:04;;;;;;;1.60;1.00;;;15.10;98.30;;;;;;5038307;28;20398;-51
2021/05/23 00:10:31;;;;;;;2.23;1.00;;;15.10;98.30;;;;;;5056142;28;20477;-51
2021/05/23 00:13:00;;;;;;;2.40;1.10;;;15.20;98.10;;;;;;5055893;28;20404;-51
2021/05/23 00:15:36;;;;;;;1.30;1.20;;;15.10;97.80;;;;;;5056255;28;20456;-54
2021/05/23 00:18:02;;;;;;;2.90;1.50;;;15.00;98.10;;;;;;5055875;28;20405;-53
2021/05/23 00:20:28;;;;;;;2.10;1.20;;;15.00;98.40;;;;;;5048454;28;20432;-55
2021/05/23 00:22:54;;;;;;;3.17;1.20;;;15.00;98.30;;;;;;5057076;28;20558;-53
2021/05/23 00:25:21;;;;;;;1.90;1.07;;;15.00;97.80;;;;;;5062381;28;20170;-55
2021/05/23 00:27:47;;;;;;;1.57;1.23;;;15.10;98.20;;;;;;5073198;28;20410;-56
2021/05/23 00:30:15;;;;;;;2.07;1.37;;;15.00;98.10;;;;;;5054237;28;20522;-53
2021/05/23 00:32:41;;;;;;;1.13;0.83;;;15.00;97.80;;;;;;5055353;28;20408;-56
2021/05/23 00:35:08;;;;;;;1.90;1.23;;;14.80;97.90;;;;;;5055649;28;20401;-57
2021/05/23 00:37:34;;;;;;;1.50;1.40;;;14.80;98.00;;;;;;5055127;28;20547;-56
2021/05/23 00:39:59;;;;;;;1.10;1.00;;;14.80;98.00;;;;;;5037827;28;20507;-56
2021/05/23 00:42:26;;;;;;;1.30;1.00;;;14.70;98.10;;;;;;5055530;28;20195;-52
2021/05/23 00:44:52;;;;;;;1.77;0.90;;;14.70;98.10;;;;;;5055295;28;20669;-53
2021/05/23 00:47:18;;;;;;;1.20;0.90;;;14.70;98.20;;;;;;5055085;28;20481;-55
2021/05/23 00:49:43;;;;;;;1.40;1.00;;;14.80;98.10;;;;;;5054899;28;20936;-55
2021/05/23 00:52:09;;;;;;;2.07;1.30;;;14.80;98.30;;;;;;5055053;28;20171;-55
2021/05/23 00:54:35;;;;;;;2.17;0.97;;;14.60;98.10;;;;;;5055131;28;20173;-56
2021/05/23 00:57:02;;;;;;;2.70;1.30;;;14.60;98.40;;;;;;5055212;28;20169;-56
2021/05/23 00:59:27;;;;;;;2.07;1.10;;;14.70;98.60;;;;;;5046989;28;20204;-56
2021/05/23 01:01:56;;;;;;;1.70;0.97;;;14.60;98.80;;;;;;5055766;28;20438;-57
2021/05/23 01:04:22;;;;;;;1.27;1.07;;;14.70;98.80;;;;;;5055376;28;20674;-54
2021/05/23 01:06:48;;;;;;;1.47;0.80;;;14.80;98.90;;;;;;5073747;28;20413;-54
2021/05/23 01:09:14;;;;;;;2.00;1.10;;;14.80;98.90;;;;;;5075002;28;20482;-56
2021/05/23 01:11:40;;;;;;;1.17;1.07;;;14.90;98.80;;;;;;5074673;28;20511;-57
2021/05/23 01:14:11;;;;;;;2.97;1.30;;;14.90;98.60;;;;;;5074739;28;20516;-53
2021/05/23 01:16:52;;;;;;;1.50;1.27;;;14.80;98.60;;;;;;5063132;28;20182;-56
2021/05/23 01:19:26;;;;;;;1.60;1.17;;;14.90;99.00;;;;;;5034642;28;20397;-56
2021/05/23 01:21:59;;;;;;;1.90;1.10;;;14.80;99.00;;;;;;5034494;28;20443;-57
2021/05/23 01:24:38;;;;;;;1.70;1.10;;;14.80;99.70;;;;;;5034788;28;20403;-54
2021/05/23 01:27:06;;;;;;;1.53;0.87;;;14.80;99.30;;;;;;5034709;28;20421;-55
2021/05/23 01:29:33;;;;;;;0.90;0.70;;;14.70;99.40;;;;;;5049815;28;20462;-54
2021/05/23 01:31:59;;;;;;;2.00;1.07;;;14.60;99.90;;;;;;5076931;22;20862;-60
2021/05/23 01:34:25;;;;;;;1.37;1.00;;;14.50;99.90;;;;;;5054105;28;20423;-60
2021/05/23 01:36:54;;;;;;;1.10;1.00;;;14.40;99.90;;;;;;5054509;28;20395;-60
2021/05/23 01:39:20;;;;;;;2.10;0.90;;;14.50;99.90;;;;;;5046718;28;20403;-60
2021/05/23 01:41:47;;;;;;;2.40;1.07;;;14.50;99.90;;;;;;5054877;28;20595;-60
2021/05/23 01:44:13;;;;;;;2.70;0.90;;;14.40;99.90;;;;;;5054218;28;20256;-60
2021/05/23 01:46:40;;;;;;;2.17;0.90;;;14.50;99.90;;;;;;5059180;28;20422;-60
2021/05/23 01:49:05;;;;;;;1.77;1.17;;;14.50;99.90;;;;;;5053876;28;20455;-60
2021/05/23 01:51:32;;;;;;;0.97;0.80;;;14.60;99.90;;;;;;5053986;28;20438;-60
2021/05/23 01:53:59;;;;;;;1.00;0.90;;;14.70;99.90;;;;;;5053880;28;20261;-60
2021/05/23 01:56:24;;;;;;;1.20;0.87;;;14.50;99.90;;;;;;5053970;28;20407;-60
2021/05/23 01:58:50;;;;;;;1.23;1.00;;;14.50;99.90;;;;;;5061476;28;20834;-60
2021/05/23 02:01:16;;;;;;;1.10;0.80;;;14.30;99.90;;;;;;5033786;28;20222;-60
2021/05/23 02:03:42;;;;;;;2.80;1.00;;;14.40;99.90;;;;;;5033550;28;20407;-60
2021/05/23 02:06:07;;;;;;;1.90;0.87;;;14.40;99.90;;;;;;5034278;28;20169;-60
2021/05/23 02:08:34;;;;;;;1.10;0.80;;;14.40;99.90;;;;;;5034196;28;20211;-60
2021/05/23 02:11:07;;;;;;;1.40;0.90;;;14.50;99.90;;;;;;5033892;28;20242;-58
2021/05/23 02:13:34;;;;;;;2.60;0.90;;;14.30;99.90;;;;;;5034198;28;20406;-58
2021/05/23 02:16:02;;;;;;;3.77;1.20;;;14.30;99.90;;;;;;5039696;28;20773;-60
2021/05/23 02:18:31;;;;;;;1.77;0.93;;;14.40;99.90;;;;;;5050782;28;20406;-55
2021/05/23 02:20:56;;;;;;;1.20;0.80;;;14.50;99.90;;;;;;5046727;28;20508;-59
2021/05/23 02:23:24;;;;;;;1.70;1.10;;;14.60;99.90;;;;;;5052978;28;20425;-59
2021/05/23 02:25:51;;;;;;;1.63;1.10;;;14.40;99.90;;;;;;5064114;28;20692;-59
2021/05/23 02:28:18;;;;;;;1.47;0.90;;;14.30;99.90;;;;;;5060916;28;20418;-59
2021/05/23 02:30:46;;;;;;;2.23;1.00;;;14.10;99.90;;;;;;5050112;28;20456;-60
2021/05/23 02:33:14;;;;;;;2.03;1.07;;;14.10;99.90;;;;;;5052903;28;20409;-60
2021/05/23 02:35:43;;;;;;;1.67;0.90;;;13.70;99.90;;;;;;5053203;28;20902;-60
2021/05/23 02:38:10;;;;;;;7.73;1.30;;;13.10;99.90;;;;;;5053232;28;20933;-60
2021/05/23 02:40:37;;;;;;;2.17;0.83;;;12.40;99.90;;;;;;5053112;28;20458;-60
2021/05/23 02:43:04;;;;;;;1.20;0.70;;;12.10;99.90;;;;;;5053249;28;20413;-59
2021/05/23 02:45:30;;;;;;;0.80;0.70;;;11.80;99.90;;;;;;5053126;28;20411;-59
2021/05/23 02:47:56;;;;;;;1.03;0.70;;;11.50;99.90;;;;;;5053053;28;20444;-60
2021/05/23 02:50:28;;;;;;;1.10;0.80;;;11.70;99.90;;;;;;5052839;28;20839;-59
2021/05/23 02:52:54;;;;;;;1.17;0.70;;;11.60;99.90;;;;;;5053244;28;20738;-60
2021/05/23 02:55:20;;;;;;;0.87;0.80;;;11.60;99.90;;;;;;5053208;28;20496;-59
2021/05/23 02:57:46;;;;;;;1.00;0.80;;;11.70;99.90;;;;;;5054067;28;20519;-60
2021/05/23 03:00:18;;;;;;;0.90;0.70;;;11.80;99.90;;;;;;5042716;28;20993;-60
2021/05/23 03:02:45;;;;;;;1.10;0.80;;;11.90;99.90;;;;;;5053719;28;20305;-60
2021/05/23 03:05:13;;;;;;;2.03;0.93;;;11.70;99.90;;;;;;5057890;28;20458;-59
2021/05/23 03:07:45;;;;;;;1.03;0.93;;;11.90;99.90;;;;;;5038661;28;20418;-60
2021/05/23 03:10:16;;;;;;;1.33;0.63;;;12.10;99.90;;;;;;5073404;28;20737;-60
2021/05/23 03:12:42;;;;;;;0.83;0.80;;;12.30;99.90;;;;;;5073314;28;20381;-60
2021/05/23 03:15:12;;;;;;;1.07;0.70;;;12.30;99.90;;;;;;5072950;28;20461;-60
2021/05/23 03:17:38;;;;;;;1.83;0.70;;;12.40;99.90;;;;;;5060368;28;20408;-60
2021/05/23 03:20:07;;;;;;;1.60;0.63;;;12.40;99.90;;;;;;5072855;28;20410;-60
2021/05/23 03:22:32;;;;;;;1.03;0.67;;;12.40;99.90;;;;;;5072923;28;20456;-60
2021/05/23 03:24:58;;;;;;;1.10;0.60;;;12.10;99.90;;;;;;5054851;28;20478;-58
2021/05/23 03:27:23;;;;;;;3.10;1.17;;;12.00;99.90;;;;;;5073359;28;20241;-60
2021/05/23 03:29:49;;;;;;;0.70;0.50;;;12.00;99.90;;;;;;5043592;28;20179;-60
2021/05/23 03:32:15;;;;;;;1.10;0.60;;;12.00;99.90;;;;;;5053715;28;20618;-60
2021/05/23 03:34:40;;;;;;;0.70;0.50;;;12.00;99.90;;;;;;5056646;28;20214;-60
2021/05/23 03:37:06;;;;;;;1.10;0.70;;;11.90;99.90;;;;;;5056550;28;20172;-60
2021/05/23 03:39:31;;;;;;;1.03;0.83;;;12.00;99.90;;;;;;5056477;28;20178;-60
2021/05/23 03:41:58;;;;;;;1.00;0.60;;;12.00;99.90;;;;;;5056454;28;20294;-60
2021/05/23 03:44:25;;;;;;;1.10;0.70;;;11.80;99.90;;;;;;5056550;28;20569;-59
2021/05/23 03:46:50;;;;;;;0.73;0.60;;;11.90;99.90;;;;;;5056411;28;20468;-59
2021/05/23 03:49:16;;;;;;;0.80;0.57;;;12.10;99.90;;;;;;5047666;28;20416;-53
2021/05/23 03:51:44;;;;;;;1.03;0.70;;;12.20;99.90;;;;;;5051792;28;20274;-60
2021/05/23 03:54:10;;;;;;;2.47;0.73;;;12.30;99.90;;;;;;5036116;28;20187;-60
2021/05/23 03:56:35;;;;;;;1.53;0.50;;;12.10;99.90;;;;;;5069824;28;20411;-60
2021/05/23 03:59:01;;;;;;;1.10;0.80;;;12.20;99.90;;;;;;5064347;28;20426;-60
2021/05/23 04:01:26;;;;;;;0.70;0.60;;;12.10;99.90;;;;;;5035624;28;20202;-60
2021/05/23 04:03:57;;;;;;;0.80;0.60;;;12.30;99.90;;;;;;5036074;28;20174;-59
2021/05/23 04:06:22;;;;;;;0.83;0.60;;;12.20;99.90;;;;;;5036547;28;20165;-60
2021/05/23 04:08:48;;;;;;;1.00;0.60;;;12.30;99.90;;;;;;5070481;28;20418;-60
2021/05/23 04:11:18;;;;;;;1.27;0.77;;;12.30;99.90;;;;;;5076238;28;20691;-60
2021/05/23 04:13:45;;;;;;;1.17;0.77;;;12.20;99.90;;;;;;5076285;28;20416;-60
2021/05/23 04:16:11;;;;;;;1.77;0.70;;;12.30;99.90;;;;;;5068199;28;20413;-59
2021/05/23 04:18:37;;;;;;;1.50;0.70;;;12.40;99.90;;;;;;5055490;28;20463;-60
2021/05/23 04:21:03;;;;;;;1.67;0.60;;;12.40;99.90;;;;;;5055846;28;20452;-60
2021/05/23 04:23:29;;;;;;;1.20;0.60;;;12.50;99.90;;;;;;5055017;28;20230;-59
2021/05/23 04:25:54;;;;;;;1.77;0.60;;;12.40;99.90;;;;;;5045341;28;20916;-60
2021/05/23 04:28:20;;;;;;;0.90;0.60;;;12.40;99.90;;;;;;5035437;28;20175;-55
2021/05/23 04:30:46;;;;;;;1.97;0.70;;;12.40;99.90;;;;;;5046255;28;20214;-60
2021/05/23 04:33:11;;;;;;;2.03;0.80;;;12.30;99.90;;;;;;5055636;28;20397;-60
2021/05/23 04:35:37;;;;;;;1.00;0.70;;;12.30;99.90;;;;;;5063732;28;20186;-60
2021/05/23 04:38:04;;;;;;;1.00;0.70;;;12.40;99.90;;;;;;5036190;28;20636;-58
2021/05/23 04:40:30;;;;;;;0.80;0.70;;;12.50;99.90;;;;;;5035233;28;20193;-60
2021/05/23 04:42:56;;;;;;;0.70;0.57;;;12.60;99.90;;;;;;5035235;28;20418;-60
2021/05/23 04:45:22;;;;;;;1.23;0.67;;;12.70;99.90;;;;;;5036371;28;20398;-60
2021/05/23 04:47:49;;;;;;;1.47;0.77;;;12.70;99.90;;;;;;5064250;28;20194;-60
2021/05/23 04:50:15;;;;;;;1.00;0.60;;;12.70;99.90;;;;;;5075325;28;20410;-60
2021/05/23 04:52:41;;;;;;;1.00;0.80;;;12.60;99.90;;;;;;5075284;28;20515;-60
2021/05/23 04:55:08;;;;;;;1.73;0.60;;;12.70;99.90;;;;;;5075373;28;20174;-60
2021/05/23 04:57:34;;;;;;;0.90;0.80;;;12.80;99.90;;;;;;5075698;28;20962;-60
2021/05/23 04:59:59;;;;;;;1.53;0.73;;;12.90;99.90;;;;;;5046432;28;20422;-60
2021/05/23 05:02:25;;;;;;;2.10;0.90;;;12.80;99.90;;;;;;5035188;28;20528;-59
2021/05/23 05:04:51;;;;;;;1.93;0.70;;;12.80;99.90;;;;;;5039353;28;20177;-59
2021/05/23 05:07:17;;;;;;;1.13;0.63;;;12.90;99.90;;;;;;5055051;28;20414;-59
2021/05/23 05:09:42;;;;;;;0.83;0.60;;;13.00;99.90;;;;;;5044349;28;20261;-60
2021/05/23 05:12:09;;;;;;;1.33;0.80;;;13.10;99.90;;;;;;5055845;28;20291;-60
2021/05/23 05:14:35;;;;;;;1.40;0.80;;;13.00;99.90;;;;;;5055340;28;20202;-59
2021/05/23 05:17:01;;;;;;;1.30;0.80;;;13.00;99.90;;;;;;5060076;28;20869;-60
2021/05/23 05:19:27;;;;;;;1.20;0.77;;;13.00;99.90;;;;;;5054999;28;20428;-60
2021/05/23 05:21:52;;;;;;;2.20;1.23;;;13.20;99.90;;;;;;5054787;28;20977;-60
2021/05/23 05:24:18;;;;;;;1.00;0.80;;;13.30;99.90;;;;;;5054425;28;20254;-60
2021/05/23 05:26:44;;;;;;;1.53;1.00;;;13.40;99.90;;;;;;5054702;28;20173;-60
2021/05/23 05:29:09;;;;;;;0.90;0.80;;;13.30;99.90;;;;;;5059611;28;20322;-59
2021/05/23 05:31:35;;;;;;;2.63;0.80;;;13.30;99.90;;;;;;5034216;28;20322;-60
2021/05/23 05:34:01;;;;;;;1.20;1.10;;;13.20;99.90;;;;;;5034286;28;20167;-61
2021/05/23 05:36:27;;;;;;;1.77;0.70;;;13.30;99.90;;;;;;5034087;28;20188;-60
2021/05/23 05:38:53;;;;;;;1.10;0.70;;;13.40;99.90;;;;;;5034675;28;20226;-60
2021/05/23 05:41:20;;;;;;;0.83;0.63;;;13.50;99.90;;;;;;5034246;28;20458;-59
2021/05/23 05:43:46;;;;;;;0.80;0.70;;;13.50;99.90;;;;;;5034379;28;20164;-61
2021/05/23 05:46:12;;;;;;;3.53;0.80;;;13.40;99.90;;;;;;5042081;28;20409;-58
2021/05/23 05:48:38;;;;;;;1.13;0.87;;;13.10;99.90;;;;;;5054240;28;20473;-59
2021/05/23 05:51:04;;;;;;;1.07;0.73;;;13.30;99.90;;;;;;5053626;28;20209;-60
2021/05/23 05:53:29;;;;;;;2.37;0.73;;;13.60;99.90;;;;;;5053879;28;20184;-59
2021/05/23 05:55:55;;;;;;;1.10;1.00;;;13.80;99.90;;;;;;5053143;28;20527;-60
2021/05/23 05:58:20;;;;;;;2.57;0.70;;;13.90;99.90;;;;;;5053418;28;20540;-59
2021/05/23 06:00:46;;;;;;;1.30;0.90;;;14.00;99.90;;;;;;5053687;28;20201;-59
2021/05/23 06:03:12;;;;;;;1.20;0.70;;;14.10;99.90;;;;;;5053729;28;20164;-59
2021/05/23 06:05:37;;;;;;;0.90;0.70;;;14.10;99.90;;;;;;5072901;28;20178;-59
2021/05/23 06:08:03;;;;;;;1.10;0.80;;;14.00;99.90;;;;;;5073896;28;20222;-60
2021/05/23 06:10:29;;;;;;;1.00;0.80;;;14.10;99.90;;;;;;5073747;28;20194;-59
2021/05/23 06:12:54;;;;;;;1.07;0.80;;;13.70;99.90;;;;;;5073670;28;20175;-60
2021/05/23 06:15:20;;;;;;;3.17;0.90;;;13.70;99.90;;;;;;5073363;28;20251;-60
2021/05/23 06:17:46;;;;;;;3.10;0.97;;;14.00;99.90;;;;;;5053467;28;20176;-59
2021/05/23 06:20:12;;;;;;;1.63;0.60;;;14.00;99.90;;;;;;5053676;28;20276;-60
2021/05/23 06:22:38;;;;;;;1.53;0.77;;;14.10;99.90;;;;;;5053919;28;20317;-59
2021/05/23 06:25:06;;;;;;;1.40;0.90;;;14.20;99.90;;;;;;5053855;28;20917;-60
2021/05/23 06:27:31;;;;;;;1.47;1.00;;;14.40;99.90;;;;;;5053530;28;20251;-61
2021/05/23 06:29:57;;;;;;;2.40;0.73;;;14.10;99.90;;;;;;5040276;28;20518;-60
2021/05/23 06:32:23;;;;;;;1.37;1.00;;;14.10;99.90;;;;;;5053530;28;20253;-61
2021/05/23 06:34:48;;;;;;;1.00;0.90;;;14.20;99.90;;;;;;5054573;28;20612;-60
2021/05/23 06:37:14;;;;;;;0.80;0.70;;;14.40;99.90;;;;;;5047535;28;20235;-61
2021/05/23 06:39:40;;;;;;;1.00;0.80;;;14.40;99.90;;;;;;5033457;28;20181;-61
2021/05/23 06:42:06;;;;;;;1.67;0.70;;;14.50;99.90;;;;;;5033190;28;20446;-60
2021/05/23 06:44:31;;;;;;;0.93;0.83;;;14.60;99.90;;;;;;5033668;28;20211;-61
2021/05/23 06:46:57;;;;;;;2.10;0.90;;;14.80;99.90;;;;;;5048540;28;20183;-61
2021/05/23 06:49:23;;;;;;;1.00;0.63;;;14.50;99.90;;;;;;5073161;28;20663;-61
2021/05/23 06:51:48;;;;;;;1.43;0.70;;;14.10;99.90;;;;;;5073243;28;20199;-60
2021/05/23 06:54:14;;;;;;;1.77;0.80;;;13.90;99.90;;;;;;5073743;28;20621;-56
2021/05/23 06:56:39;;;;;;;1.30;0.73;;;13.90;99.90;;;;;;5073607;28;20177;-60
2021/05/23 06:59:06;;;;;;;1.33;0.83;;;14.00;99.90;;;;;;5060173;28;20192;-61
2021/05/23 07:01:32;;;;;;;2.20;0.87;;;14.10;99.90;;;;;;5033055;28;20197;-60
2021/05/23 07:03:58;;;;;;;1.00;0.70;;;14.30;99.90;;;;;;5032820;28;20445;-60
2021/05/23 07:06:24;;;;;;;1.90;0.60;;;14.40;99.90;;;;;;5035201;28;20597;-61
2021/05/23 07:08:49;;;;;;;2.20;0.90;;;14.40;99.90;;;;;;5033849;28;20461;-54
2021/05/23 07:11:15;;;;;;;1.90;0.80;;;14.40;99.90;;;;;;5054573;28;20222;-60
2021/05/23 07:13:40;;;;;;;1.43;0.80;;;14.30;99.90;;;;;;5057294;28;20284;-60
2021/05/23 07:16:06;;;;;;;2.70;0.90;;;14.20;99.90;;;;;;5061418;28;20615;-60
2021/05/23 07:18:32;;;;;;;1.03;0.60;;;13.90;99.90;;;;;;5055879;28;20218;-60
2021/05/23 07:20:59;;;;;;;1.73;0.70;;;13.80;99.90;;;;;;5056867;28;20236;-60
2021/05/23 07:23:25;;;;;;;2.50;0.70;;;13.70;99.90;;;;;;5044687;28;20182;-60
2021/05/23 07:25:51;;;;;;;1.60;0.80;;;13.80;99.90;;;;;;5036874;28;20934;-60
2021/05/23 07:28:16;;;;;;;1.50;0.80;;;13.90;99.90;;;;;;5061989;28;20401;-59
2021/05/23 07:30:42;;;;;;;1.00;0.80;;;14.20;99.90;;;;;;5068887;22;20236;-57
2021/05/23 07:33:08;;;;;;;1.67;0.90;;;14.20;99.90;;;;;;5056688;28;20192;-56
2021/05/23 07:35:34;;;;;;;0.90;0.70;;;14.20;99.90;;;;;;5056258;28;20173;-55
2021/05/23 07:38:00;;;;;;;0.90;0.70;;;14.40;99.90;;;;;;5056135;28;20409;-56
2021/05/23 07:40:25;;;;;;;1.40;0.90;;;14.30;99.90;;;;;;5056260;28;20180;-56
2021/05/23 07:42:51;;;;;;;0.90;0.63;;;14.40;99.90;;;;;;5056520;28;20257;-57
2021/05/23 07:45:17;;;;;;;1.37;0.80;;;14.50;99.90;;;;;;5055949;28;20631;-54
2021/05/23 07:47:42;;;;;;;1.60;0.73;;;14.70;99.90;;;;;;5056203;28;20272;-57
2021/05/23 07:50:09;;;;;;;3.37;1.20;;;14.50;99.90;;;;;;5049050;28;20887;-56
2021/05/23 07:52:35;;;;;;;2.33;0.80;;;13.10;99.90;;;;;;5056928;28;20210;-57
2021/05/23 07:55:01;;;;;;;1.53;0.90;;;11.60;99.90;;;;;;5059680;28;20415;-54
2021/05/23 07:57:27;;;;;;;2.20;0.67;;;10.90;99.90;;;;;;5076123;28;20412;-57
2021/05/23 07:59:53;;;;;;;1.23;0.60;;;10.50;99.90;;;;;;5062950;28;20224;-56
2021/05/23 08:02:18;;;;;;;2.40;1.00;;;10.70;99.90;;;;;;5056092;28;20487;-58
2021/05/23 08:04:44;;;;;;;2.80;1.10;;;10.90;99.90;;;;;;5056095;28;20174;-56
2021/05/23 08:07:10;;;;;;;1.43;0.80;;;11.30;99.90;;;;;;5059920;28;20169;-55
2021/05/23 08:09:35;;;;;;;2.03;1.10;;;11.40;99.90;;;;;;5076069;28;20698;-57
2021/05/23 08:12:02;;;;;;;1.63;0.70;;;11.50;99.90;;;;;;5064649;28;20195;-55
2021/05/23 08:14:27;;;;;;;3.23;1.10;;;11.70;99.90;;;;;;5032534;28;20177;-55
2021/05/23 08:16:53;;;;;;;2.40;1.33;;;11.70;99.90;;;;;;5054477;28;20464;-54
2021/05/23 08:19:19;;;;;;;0.80;0.70;;;11.80;99.90;;;;;;5054497;28;20583;-56
2021/05/23 08:21:45;;;;;;;1.37;0.80;;;11.90;99.90;;;;;;5055799;28;20610;-56
2021/05/23 08:24:12;;;;;;;2.17;1.00;;;11.70;99.90;;;;;;5056021;28;20413;-55
2021/05/23 08:26:38;;;;;;;1.93;1.10;;;11.70;99.90;;;;;;5055709;28;20417;-55
2021/05/23 08:29:04;;;;;;;1.30;0.70;;;11.70;99.90;;;;;;5046895;28;20419;-54
2021/05/23 08:31:31;;;;;;;1.13;0.87;;;12.00;99.90;;;;;;5056210;28;20298;-56
2021/05/23 08:33:56;;;;;;;1.00;0.70;;;12.10;99.90;;;;;;5061341;28;20425;-56
2021/05/23 08:36:22;;;;;;;1.37;0.90;;;12.30;99.90;;;;;;5062209;28;20413;-57
2021/05/23 08:38:48;;;;;;;1.13;0.80;;;12.60;99.90;;;;;;5055740;28;20178;-57
2021/05/23 08:41:18;;;;;;;1.50;0.87;;;13.10;99.90;;;;;;5055168;28;20630;-55
2021/05/23 08:43:45;;;;;;;1.83;0.80;;;13.40;99.90;;;;;;5055411;28;20693;-53
2021/05/23 08:46:11;;;;;;;1.50;0.87;;;13.80;99.90;;;;;;5061679;28;20910;-58
2021/05/23 08:48:37;;;;;;;1.20;0.80;;;14.00;99.90;;;;;;5075068;28;20403;-55
2021/05/23 08:51:03;;;;;;;1.70;0.80;;;14.20;99.90;;;;;;5075147;28;20198;-56
2021/05/23 08:53:29;;;;;;;2.97;1.27;;;14.20;99.90;;;;;;5074849;28;20850;-55
2021/05/23 08:55:55;;;;;;;1.50;1.00;;;14.40;99.90;;;;;;5075284;28;20228;-56
2021/05/23 08:58:24;;;;;;;2.00;0.80;;;14.60;99.90;;;;;;5075360;28;20178;-54
2021/05/23 09:00:49;;;;;;;3.53;0.90;;;14.80;99.90;;;;;;5048832;28;20207;-55
2021/05/23 09:03:16;;;;;;;1.03;0.70;;;15.00;99.90;;;;;;5054497;28;20413;-55
2021/05/23 09:05:50;;;;;;;1.63;1.10;;;15.00;99.90;;;;;;5063945;28;20180;-55
2021/05/23 09:08:20;;;;;;;2.03;1.10;;;15.40;99.90;;;;;;5074727;28;20861;-54
2021/05/23 09:10:48;;;;;;;1.93;1.00;;;15.30;99.90;;;;;;5074618;28;20418;-54
2021/05/23 09:13:24;;;;;;;3.27;1.30;;;15.40;99.90;;;;;;5074768;28;20773;-55
2021/05/23 09:16:00;;;;;;;1.03;0.80;;;15.40;99.90;;;;;;5069934;28;20461;-56
2021/05/23 09:18:42;;;;;;;2.50;0.97;;;15.30;99.90;;;;;;5068222;28;20401;-53
2021/05/23 09:21:09;;;;;;;1.03;0.93;;;15.40;99.90;;;;;;5074297;28;20445;-56
2021/05/23 09:23:48;;;;;;;2.47;1.03;;;15.30;99.90;;;;;;5074512;28;20402;-56
2021/05/23 09:26:22;;;;;;;2.10;1.43;;;15.50;99.90;;;;;;5074731;28;20907;-56
2021/05/23 09:28:49;;;;;;;1.50;1.13;;;15.40;99.90;;;;;;5069706;28;20464;-56
2021/05/23 09:31:21;;;;;;;1.87;0.80;;;15.40;99.90;;;;;;5054142;28;20462;-56
2021/05/23 09:33:50;;;;;;;1.47;0.97;;;15.30;99.90;;;;;;5054202;28;20487;-56
2021/05/23 09:36:17;;;;;;;3.33;1.10;;;15.20;99.90;;;;;;5054127;28;20758;-56
2021/05/23 09:39:04;;;;;;;4.83;1.27;;;14.90;99.90;;;;;;5048748;28;20453;-55
2021/05/23 09:41:38;;;;;;;1.97;1.13;;;14.90;99.90;;;;;;5053023;28;20456;-54
2021/05/23 09:44:10;;;;;;;1.50;0.93;;;14.80;99.90;;;;;;5053633;28;20402;-56
2021/05/23 09:46:36;;;;;;;1.60;1.20;;;15.10;99.90;;;;;;5053706;28;20451;-51
2021/05/23 09:49:02;;;;;;;1.67;0.80;;;15.20;99.90;;;;;;5053773;28;20813;-51
2021/05/23 09:51:28;;;;;;;1.23;0.70;;;14.70;99.90;;;;;;5053590;28;20451;-54
2021/05/23 09:53:59;;;;;;;1.20;0.60;;;14.20;99.90;;;;;;5035484;28;20417;-53
2021/05/23 09:56:30;;;;;;;1.03;0.80;;;14.00;99.90;;;;;;5053875;28;20591;-53
2021/05/23 09:58:56;;;;;;;2.80;0.87;;;13.80;99.90;;;;;;5066443;28;20421;-55
2021/05/23 10:01:30;;;;;;;0.80;0.60;;;13.80;99.90;;;;;;5053369;28;20522;-55
2021/05/23 10:03:57;;;;;;;1.20;1.00;;;14.30;99.90;;;;;;5053677;28;20178;-56
2021/05/23 10:06:30;;;;;;;1.40;0.80;;;14.30;99.90;;;;;;5053848;28;20455;-55
2021/05/23 10:08:57;;;;;;;1.87;0.90;;;14.40;99.90;;;;;;5035969;28;20794;-55
2021/05/23 10:11:24;;;;;;;3.33;1.00;;;14.30;99.90;;;;;;5053533;28;20464;-56
2021/05/23 10:13:50;;;;;;;1.50;1.03;;;14.70;99.90;;;;;;5053705;28;20407;-53
2021/05/23 10:16:17;;;;;;;1.37;1.00;;;14.90;99.90;;;;;;5053611;28;21014;-57
2021/05/23 10:18:45;;;;;;;1.43;0.80;;;15.00;99.90;;;;;;5048389;28;20425;-57
2021/05/23 10:21:12;;;;;;;1.73;0.80;;;15.10;99.90;;;;;;5051650;28;20454;-57
2021/05/23 10:23:43;;;;;;;1.63;0.80;;;15.10;99.90;;;;;;5053338;28;20409;-54
2021/05/23 10:26:11;;;;;;;1.80;0.80;;;15.40;99.90;;;;;;5066022;28;20870;-56
2021/05/23 10:28:42;;;;;;;2.13;1.20;;;15.80;99.90;;;;;;5070180;28;20410;-56
2021/05/23 10:31:09;;;;;;;1.87;0.90;;;16.00;99.90;;;;;;5033312;28;20453;-56
2021/05/23 10:33:34;;;;;;;2.97;0.80;;;16.10;99.90;;;;;;5032927;28;20555;-57
2021/05/23 10:36:00;;;;;;;2.27;1.00;;;16.30;99.90;;;;;;5033247;28;20409;-55
2021/05/23 10:38:27;;;;;;;2.60;1.20;;;16.50;99.90;;;;;;5060866;28;20425;-57
2021/05/23 10:40:58;;;;;;;1.10;0.90;;;16.60;99.90;;;;;;5072539;28;20459;-57
2021/05/23 10:43:29;;;;;;;1.40;0.90;;;16.70;99.90;;;;;;5073256;28;20401;-57
2021/05/23 10:46:09;;;;;;;2.30;0.80;;;17.00;99.90;;;;;;5055436;28;20412;-56
2021/05/23 10:48:36;;;;;;;2.73;0.80;;;17.30;99.90;;;;;;5052841;28;20403;-57
2021/05/23 10:51:16;;;;;;;1.90;1.03;;;17.70;96.80;;;;;;5052728;28;20895;-57
2021/05/23 10:53:42;;;;;;;2.13;1.27;;;17.70;95.60;;;;;;5053280;28;20391;-57
2021/05/23 10:56:25;;;;;;;1.97;0.70;;;17.90;97.30;;;;;;5053157;28;20408;-56
2021/05/23 10:58:53;;;;;;;1.10;0.87;;;17.90;98.20;;;;;;5052751;28;20515;-57
2021/05/23 11:01:24;;;;;;;1.57;1.07;;;17.70;96.60;;;;;;5053055;28;20505;-57
2021/05/23 11:03:49;;;;;;;1.60;0.90;;;17.60;96.70;;;;;;5052288;28;20395;-55
2021/05/23 11:06:22;;;;;;;2.03;0.70;;;17.70;95.80;;;;;;5052674;28;21001;-54
2021/05/23 11:08:48;;;;;;;0.90;0.63;;;17.40;97.80;;;;;;5045787;28;20189;-56
2021/05/23 11:11:20;;;;;;;1.20;0.80;;;16.90;96.20;;;;;;5052042;28;20499;-55
2021/05/23 11:13:46;;;;;;;2.63;1.60;;;16.80;97.20;;;;;;5053051;28;20403;-54
2021/05/23 11:16:18;;;;;;;1.70;1.00;;;16.50;97.60;;;;;;5058308;28;20417;-57
2021/05/23 11:18:45;;;;;;;3.23;0.87;;;16.50;98.80;;;;;;5052008;28;20177;-57
2021/05/23 11:21:13;;;;;;;1.57;1.10;;;16.80;99.80;;;;;;5052315;28;20995;-52
2021/05/23 11:23:55;;;;;;;1.23;0.90;;;16.80;98.60;;;;;;5052709;28;20406;-57
2021/05/23 11:26:25;;;;;;;1.80;1.27;;;17.20;99.50;;;;;;5052759;28;20440;-54
2021/05/23 11:28:55;;;;;;;2.63;1.00;;;17.00;98.30;;;;;;5051503;28;20817;-55
2021/05/23 11:31:25;;;;;;;5.50;1.33;;;17.00;98.70;;;;;;5052488;28;20456;-56
2021/05/23 11:33:51;;;;;;;1.70;1.00;;;17.50;98.90;;;;;;5052545;28;20415;-55
2021/05/23 11:36:18;;;;;;;1.00;0.70;;;17.90;97.00;;;;;;5052460;28;20414;-56
2021/05/23 11:38:44;;;;;;;1.17;0.60;;;18.50;95.20;;;;;;5052462;28;20909;-56
2021/05/23 11:41:10;;;;;;;1.57;0.80;;;19.00;94.90;;;;;;5052394;28;20460;-56
2021/05/23 11:43:35;;;;;;;1.30;0.73;;;19.30;93.30;;;;;;5052465;28;20174;-55
2021/05/23 11:46:03;;;;;;;0.90;0.60;;;19.20;93.00;;;;;;5052523;28;20519;-56
2021/05/23 11:48:33;;;;;;;1.30;0.83;;;19.80;92.80;;;;;;5049746;28;20163;-57
2021/05/23 11:51:00;;;;;;;2.37;0.73;;;19.30;91.50;;;;;;5048441;28;20440;-56
2021/05/23 11:53:38;;;;;;;0.70;0.50;;;19.30;92.90;;;;;;5054607;28;20404;-54
2021/05/23 11:56:05;;;;;;;0.70;0.50;;;19.40;92.50;;;;;;5068302;28;20498;-57
2021/05/23 11:58:31;;;;;;;1.00;0.50;;;20.20;90.30;;;;;;5074014;28;20534;-56
2021/05/23 12:01:11;;;;;;;1.00;0.70;;;20.60;88.80;;;;;;5055857;28;20448;-56
2021/05/23 12:03:36;;;;;;;1.10;0.50;;;21.30;91.00;;;;;;5055158;28;20174;-57
2021/05/23 12:06:02;;;;;;;3.27;0.90;;;23.20;82.40;;;;;;5056154;28;20543;-57
2021/05/23 12:08:27;;;;;;;2.27;0.77;;;23.90;71.80;;;;;;5056124;28;20623;-56
2021/05/23 12:11:04;;;;;;;1.10;0.60;;;23.30;75.50;;;;;;5038094;28;20789;-56
2021/05/23 12:13:49;;;;;;;1.37;0.80;;;22.40;78.60;;;;;;5056189;28;20154;-56
2021/05/23 12:16:17;;;;;;;0.80;0.60;;;22.80;72.70;;;;;;5056219;28;20461;-56
2021/05/23 12:18:48;;;;;;;0.93;0.70;;;22.90;72.10;;;;;;5054867;28;20419;-54
2021/05/23 12:21:19;;;;;;;2.07;0.70;;;23.60;73.40;;;;;;5055371;28;20448;-57
2021/05/23 12:23:48;;;;;;;1.10;0.70;;;25.20;71.30;;;;;;5055516;28;20945;-56
2021/05/23 12:26:16;;;;;;;1.93;0.90;;;24.00;69.80;;;;;;5055599;28;20406;-56
2021/05/23 12:28:47;;;;;;;1.33;0.80;;;23.70;67.00;;;;;;5050897;28;21052;-56
2021/05/23 12:31:14;;;;;;;2.03;0.90;;;23.30;67.30;;;;;;5054320;28;20452;-56
2021/05/23 12:33:47;;;;;;;1.40;0.80;;;23.20;71.70;;;;;;5055157;28;20413;-56
2021/05/23 12:36:13;;;;;;;1.47;0.77;;;24.70;67.10;;;;;;5068625;28;20408;-56
2021/05/23 12:38:41;;;;;;;2.20;0.63;;;25.30;65.90;;;;;;5075751;28;20419;-56
2021/05/23 12:41:11;;;;;;;1.60;0.80;;;25.30;65.30;;;;;;5075540;28;20444;-56
2021/05/23 12:43:39;;;;;;;2.13;1.00;;;24.00;65.70;;;;;;5075530;28;20805;-56
2021/05/23 12:46:10;;;;;;;1.00;0.70;;;23.20;69.70;;;;;;5068547;28;20417;-56
2021/05/23 12:48:41;;;;;;;2.63;1.10;;;22.10;72.00;;;;;;5070102;28;20424;-59